sensor_id;sensor_type;location;lat;lon;timestamp;P1;durP1;ratioP1;P2;durP2;ratioP2
55800;SDS011;41730;51.960;20.158;2022-12-17T00:01:29;52.30;;;25.00;;
55800;SDS011;41730;51.960;20.158;2022-12-17T00:04:18;61.60;;;28.50;;
55800;SDS011;41730;51.960;20.158;2022-12-17T00:07:07;58.30;;;26.20;;
55800;SDS011;41730;51.960;20.158;2022-12-17T00:09:56;59.80;;;26.60;;
55800;SDS011;41730;51.960;20.158;2022-12-17T00:12:46;66.90;;;28.10;;
55800;SDS011;41730;51.960;20.158;2022-12-17T00:15:36;57.30;;;25.60;;
55800;SDS011;41730;51.960;20.158;2022-12-17T00:18:25;54.10;;;24.70;;
55800;SDS011;41730;51.960;20.158;2022-12-17T00:21:13;53.40;;;24.90;;
55800;SDS011;41730;51.960;20.158;2022-12-17T00:24:02;54.30;;;23.60;;
55800;SDS011;41730;51.960;20.158;2022-12-17T00:26:52;59.20;;;26.40;;
55800;SDS011;41730;51.960;20.158;2022-12-17T00:29:41;54.90;;;24.60;;
55800;SDS011;41730;51.960;20.158;2022-12-17T00:32:30;54.90;;;24.50;;
55800;SDS011;41730;51.960;20.158;2022-12-17T00:35:19;59.20;;;25.30;;
55800;SDS011;41730;51.960;20.158;2022-12-17T00:38:12;56.30;;;24.60;;
55800;SDS011;41730;51.960;20.158;2022-12-17T00:41:02;58.30;;;25.80;;
55800;SDS011;41730;51.960;20.158;2022-12-17T00:43:51;60.30;;;26.20;;
55800;SDS011;41730;51.960;20.158;2022-12-17T00:46:41;60.70;;;26.80;;
55800;SDS011;41730;51.960;20.158;2022-12-17T00:49:30;64.40;;;27.00;;
55800;SDS011;41730;51.960;20.158;2022-12-17T00:52:19;61.40;;;27.20;;
55800;SDS011;41730;51.960;20.158;2022-12-17T00:55:08;62.10;;;27.10;;
55800;SDS011;41730;51.960;20.158;2022-12-17T00:57:57;65.70;;;27.60;;
55800;SDS011;41730;51.960;20.158;2022-12-17T01:00:45;64.20;;;26.80;;
55800;SDS011;41730;51.960;20.158;2022-12-17T01:03:34;58.10;;;24.90;;
55800;SDS011;41730;51.960;20.158;2022-12-17T01:06:23;57.90;;;25.60;;
55800;SDS011;41730;51.960;20.158;2022-12-17T01:09:12;58.60;;;24.80;;
55800;SDS011;41730;51.960;20.158;2022-12-17T01:14:49;61.80;;;25.20;;
55800;SDS011;41730;51.960;20.158;2022-12-17T01:17:38;55.30;;;22.90;;
55800;SDS011;41730;51.960;20.158;2022-12-17T01:20:27;51.50;;;24.30;;
55800;SDS011;41730;51.960;20.158;2022-12-17T01:23:16;58.50;;;24.40;;
55800;SDS011;41730;51.960;20.158;2022-12-17T01:26:06;56.10;;;23.50;;
55800;SDS011;41730;51.960;20.158;2022-12-17T01:28:54;56.40;;;24.50;;
55800;SDS011;41730;51.960;20.158;2022-12-17T01:31:44;51.80;;;20.90;;
55800;SDS011;41730;51.960;20.158;2022-12-17T01:34:33;52.40;;;23.60;;
55800;SDS011;41730;51.960;20.158;2022-12-17T01:37:22;59.10;;;24.00;;
55800;SDS011;41730;51.960;20.158;2022-12-17T01:40:11;55.40;;;23.90;;
55800;SDS011;41730;51.960;20.158;2022-12-17T01:43:00;55.60;;;23.90;;
55800;SDS011;41730;51.960;20.158;2022-12-17T01:45:49;58.40;;;24.80;;
55800;SDS011;41730;51.960;20.158;2022-12-17T01:48:39;65.50;;;26.90;;
55800;SDS011;41730;51.960;20.158;2022-12-17T01:51:31;55.50;;;25.20;;
55800;SDS011;41730;51.960;20.158;2022-12-17T01:54:21;61.10;;;25.20;;
55800;SDS011;41730;51.960;20.158;2022-12-17T01:57:09;58.40;;;25.40;;
55800;SDS011;41730;51.960;20.158;2022-12-17T02:00:00;62.30;;;24.60;;
55800;SDS011;41730;51.960;20.158;2022-12-17T02:02:51;59.40;;;24.10;;
55800;SDS011;41730;51.960;20.158;2022-12-17T02:05:42;63.10;;;25.60;;
55800;SDS011;41730;51.960;20.158;2022-12-17T02:08:40;56.30;;;24.40;;
55800;SDS011;41730;51.960;20.158;2022-12-17T02:11:38;56.60;;;24.10;;
55800;SDS011;41730;51.960;20.158;2022-12-17T02:14:36;62.40;;;25.10;;
55800;SDS011;41730;51.960;20.158;2022-12-17T02:17:31;58.50;;;24.10;;
55800;SDS011;41730;51.960;20.158;2022-12-17T02:20:25;59.90;;;25.40;;
55800;SDS011;41730;51.960;20.158;2022-12-17T02:23:19;58.10;;;22.80;;
55800;SDS011;41730;51.960;20.158;2022-12-17T02:26:29;52.80;;;23.40;;
55800;SDS011;41730;51.960;20.158;2022-12-17T02:29:23;56.00;;;22.60;;
55800;SDS011;41730;51.960;20.158;2022-12-17T02:32:13;56.00;;;25.00;;
55800;SDS011;41730;51.960;20.158;2022-12-17T02:35:06;66.10;;;23.90;;
55800;SDS011;41730;51.960;20.158;2022-12-17T02:37:59;60.60;;;24.20;;
55800;SDS011;41730;51.960;20.158;2022-12-17T02:40:48;54.70;;;24.70;;
55800;SDS011;41730;51.960;20.158;2022-12-17T02:43:37;58.00;;;23.70;;
55800;SDS011;41730;51.960;20.158;2022-12-17T02:46:34;61.10;;;24.70;;
55800;SDS011;41730;51.960;20.158;2022-12-17T02:49:24;53.30;;;23.30;;
55800;SDS011;41730;51.960;20.158;2022-12-17T02:52:13;54.80;;;23.80;;
55800;SDS011;41730;51.960;20.158;2022-12-17T02:55:05;58.20;;;23.10;;
55800;SDS011;41730;51.960;20.158;2022-12-17T02:57:55;66.10;;;27.00;;
55800;SDS011;41730;51.960;20.158;2022-12-17T03:00:44;57.50;;;24.10;;
55800;SDS011;41730;51.960;20.158;2022-12-17T03:03:32;56.00;;;21.90;;
55800;SDS011;41730;51.960;20.158;2022-12-17T03:06:21;60.50;;;23.40;;
55800;SDS011;41730;51.960;20.158;2022-12-17T03:09:10;57.90;;;24.20;;
55800;SDS011;41730;51.960;20.158;2022-12-17T03:11:59;65.00;;;25.80;;
55800;SDS011;41730;51.960;20.158;2022-12-17T03:14:49;57.50;;;25.00;;
55800;SDS011;41730;51.960;20.158;2022-12-17T03:17:38;59.50;;;23.00;;
55800;SDS011;41730;51.960;20.158;2022-12-17T03:20:27;60.70;;;26.00;;
55800;SDS011;41730;51.960;20.158;2022-12-17T03:23:17;61.30;;;26.10;;
55800;SDS011;41730;51.960;20.158;2022-12-17T03:26:06;55.70;;;21.80;;
55800;SDS011;41730;51.960;20.158;2022-12-17T03:28:54;60.20;;;25.00;;
55800;SDS011;41730;51.960;20.158;2022-12-17T03:31:44;59.40;;;26.40;;
55800;SDS011;41730;51.960;20.158;2022-12-17T03:34:47;64.80;;;26.40;;
55800;SDS011;41730;51.960;20.158;2022-12-17T03:37:37;69.00;;;26.60;;
55800;SDS011;41730;51.960;20.158;2022-12-17T03:40:37;67.90;;;25.20;;
55800;SDS011;41730;51.960;20.158;2022-12-17T03:43:25;68.60;;;25.90;;
55800;SDS011;41730;51.960;20.158;2022-12-17T03:46:29;67.40;;;26.80;;
55800;SDS011;41730;51.960;20.158;2022-12-17T03:49:18;64.50;;;27.20;;
55800;SDS011;41730;51.960;20.158;2022-12-17T03:52:07;68.60;;;25.70;;
55800;SDS011;41730;51.960;20.158;2022-12-17T03:54:56;65.90;;;27.50;;
55800;SDS011;41730;51.960;20.158;2022-12-17T03:57:45;66.50;;;25.60;;
55800;SDS011;41730;51.960;20.158;2022-12-17T04:00:33;66.80;;;27.40;;
55800;SDS011;41730;51.960;20.158;2022-12-17T04:03:22;58.20;;;24.70;;
55800;SDS011;41730;51.960;20.158;2022-12-17T04:06:11;71.10;;;26.70;;
55800;SDS011;41730;51.960;20.158;2022-12-17T04:09:00;62.70;;;26.30;;
55800;SDS011;41730;51.960;20.158;2022-12-17T04:11:49;64.20;;;25.40;;
55800;SDS011;41730;51.960;20.158;2022-12-17T04:14:38;67.60;;;24.70;;
55800;SDS011;41730;51.960;20.158;2022-12-17T04:17:27;63.30;;;26.10;;
55800;SDS011;41730;51.960;20.158;2022-12-17T04:20:17;65.10;;;26.30;;
55800;SDS011;41730;51.960;20.158;2022-12-17T04:23:05;61.90;;;24.60;;
55800;SDS011;41730;51.960;20.158;2022-12-17T04:25:54;61.70;;;25.20;;
55800;SDS011;41730;51.960;20.158;2022-12-17T04:28:44;59.70;;;25.10;;
55800;SDS011;41730;51.960;20.158;2022-12-17T04:31:34;59.70;;;25.80;;
55800;SDS011;41730;51.960;20.158;2022-12-17T04:34:24;63.00;;;25.80;;
55800;SDS011;41730;51.960;20.158;2022-12-17T04:37:13;60.40;;;24.80;;
55800;SDS011;41730;51.960;20.158;2022-12-17T04:40:03;61.10;;;24.30;;
55800;SDS011;41730;51.960;20.158;2022-12-17T04:42:54;58.70;;;24.30;;
55800;SDS011;41730;51.960;20.158;2022-12-17T04:45:42;59.50;;;24.50;;
55800;SDS011;41730;51.960;20.158;2022-12-17T04:48:35;65.30;;;24.50;;
55800;SDS011;41730;51.960;20.158;2022-12-17T04:51:24;62.30;;;23.70;;
55800;SDS011;41730;51.960;20.158;2022-12-17T04:54:13;58.40;;;24.60;;
55800;SDS011;41730;51.960;20.158;2022-12-17T04:57:02;56.40;;;23.20;;
55800;SDS011;41730;51.960;20.158;2022-12-17T04:59:51;62.80;;;23.80;;
55800;SDS011;41730;51.960;20.158;2022-12-17T05:02:40;59.20;;;25.70;;
55800;SDS011;41730;51.960;20.158;2022-12-17T05:05:29;59.30;;;22.10;;
55800;SDS011;41730;51.960;20.158;2022-12-17T05:08:18;61.90;;;24.70;;
55800;SDS011;41730;51.960;20.158;2022-12-17T05:11:08;58.60;;;22.80;;
55800;SDS011;41730;51.960;20.158;2022-12-17T05:13:57;51.40;;;22.40;;
55800;SDS011;41730;51.960;20.158;2022-12-17T05:16:46;59.00;;;23.40;;
55800;SDS011;41730;51.960;20.158;2022-12-17T05:19:34;55.20;;;23.10;;
55800;SDS011;41730;51.960;20.158;2022-12-17T05:22:23;55.10;;;22.10;;
55800;SDS011;41730;51.960;20.158;2022-12-17T05:25:12;53.40;;;21.40;;
55800;SDS011;41730;51.960;20.158;2022-12-17T05:28:01;53.90;;;21.80;;
55800;SDS011;41730;51.960;20.158;2022-12-17T05:30:52;58.90;;;23.70;;
55800;SDS011;41730;51.960;20.158;2022-12-17T05:33:41;56.00;;;21.90;;
55800;SDS011;41730;51.960;20.158;2022-12-17T05:36:29;53.20;;;22.20;;
55800;SDS011;41730;51.960;20.158;2022-12-17T05:39:18;58.80;;;24.50;;
55800;SDS011;41730;51.960;20.158;2022-12-17T05:42:07;60.90;;;24.40;;
55800;SDS011;41730;51.960;20.158;2022-12-17T05:44:56;56.90;;;23.70;;
55800;SDS011;41730;51.960;20.158;2022-12-17T05:47:45;59.20;;;22.60;;
55800;SDS011;41730;51.960;20.158;2022-12-17T05:50:34;58.60;;;24.30;;
55800;SDS011;41730;51.960;20.158;2022-12-17T05:53:23;61.30;;;24.20;;
55800;SDS011;41730;51.960;20.158;2022-12-17T05:56:11;59.50;;;23.10;;
55800;SDS011;41730;51.960;20.158;2022-12-17T05:59:00;63.10;;;25.70;;
55800;SDS011;41730;51.960;20.158;2022-12-17T06:01:49;66.90;;;26.60;;
55800;SDS011;41730;51.960;20.158;2022-12-17T06:04:38;51.00;;;21.20;;
55800;SDS011;41730;51.960;20.158;2022-12-17T06:07:29;52.80;;;20.10;;
55800;SDS011;41730;51.960;20.158;2022-12-17T06:10:18;50.10;;;21.00;;
55800;SDS011;41730;51.960;20.158;2022-12-17T06:13:07;56.50;;;24.10;;
55800;SDS011;41730;51.960;20.158;2022-12-17T06:15:56;39.40;;;16.20;;
55800;SDS011;41730;51.960;20.158;2022-12-17T06:18:45;49.10;;;20.90;;
55800;SDS011;41730;51.960;20.158;2022-12-17T06:21:34;44.60;;;19.00;;
55800;SDS011;41730;51.960;20.158;2022-12-17T06:24:23;44.00;;;18.90;;
55800;SDS011;41730;51.960;20.158;2022-12-17T06:27:13;47.50;;;19.20;;
55800;SDS011;41730;51.960;20.158;2022-12-17T06:30:02;37.10;;;15.90;;
55800;SDS011;41730;51.960;20.158;2022-12-17T06:32:52;47.60;;;18.40;;
55800;SDS011;41730;51.960;20.158;2022-12-17T06:35:51;51.70;;;20.10;;
55800;SDS011;41730;51.960;20.158;2022-12-17T06:38:49;48.80;;;18.50;;
55800;SDS011;41730;51.960;20.158;2022-12-17T06:41:38;49.70;;;19.80;;
55800;SDS011;41730;51.960;20.158;2022-12-17T06:44:31;45.60;;;18.10;;
55800;SDS011;41730;51.960;20.158;2022-12-17T06:47:20;49.90;;;19.80;;
55800;SDS011;41730;51.960;20.158;2022-12-17T06:50:09;46.80;;;19.90;;
55800;SDS011;41730;51.960;20.158;2022-12-17T06:52:59;53.90;;;21.30;;
55800;SDS011;41730;51.960;20.158;2022-12-17T06:55:49;62.50;;;22.30;;
55800;SDS011;41730;51.960;20.158;2022-12-17T06:58:38;50.50;;;19.70;;
55800;SDS011;41730;51.960;20.158;2022-12-17T07:01:36;46.40;;;18.90;;
55800;SDS011;41730;51.960;20.158;2022-12-17T07:04:25;44.70;;;18.20;;
55800;SDS011;41730;51.960;20.158;2022-12-17T07:07:16;46.10;;;19.00;;
55800;SDS011;41730;51.960;20.158;2022-12-17T07:10:06;49.50;;;19.90;;
55800;SDS011;41730;51.960;20.158;2022-12-17T07:13:02;45.80;;;18.90;;
55800;SDS011;41730;51.960;20.158;2022-12-17T07:15:52;42.40;;;18.80;;
55800;SDS011;41730;51.960;20.158;2022-12-17T07:18:42;45.00;;;16.50;;
55800;SDS011;41730;51.960;20.158;2022-12-17T07:21:30;41.20;;;17.50;;
55800;SDS011;41730;51.960;20.158;2022-12-17T07:24:19;45.70;;;19.20;;
55800;SDS011;41730;51.960;20.158;2022-12-17T07:27:17;37.90;;;15.60;;
55800;SDS011;41730;51.960;20.158;2022-12-17T07:30:09;41.40;;;17.00;;
55800;SDS011;41730;51.960;20.158;2022-12-17T07:33:00;41.50;;;17.70;;
55800;SDS011;41730;51.960;20.158;2022-12-17T07:35:50;43.30;;;19.90;;
55800;SDS011;41730;51.960;20.158;2022-12-17T07:38:40;47.20;;;18.90;;
55800;SDS011;41730;51.960;20.158;2022-12-17T07:41:29;43.50;;;17.30;;
55800;SDS011;41730;51.960;20.158;2022-12-17T07:44:18;40.50;;;17.10;;
55800;SDS011;41730;51.960;20.158;2022-12-17T07:47:06;40.20;;;18.10;;
55800;SDS011;41730;51.960;20.158;2022-12-17T07:49:55;41.80;;;17.80;;
55800;SDS011;41730;51.960;20.158;2022-12-17T07:52:44;43.00;;;16.90;;
55800;SDS011;41730;51.960;20.158;2022-12-17T07:55:33;47.20;;;18.80;;
55800;SDS011;41730;51.960;20.158;2022-12-17T07:58:22;42.20;;;15.90;;
55800;SDS011;41730;51.960;20.158;2022-12-17T08:03:55;37.20;;;16.20;;
55800;SDS011;41730;51.960;20.158;2022-12-17T08:06:44;39.70;;;15.70;;
55800;SDS011;41730;51.960;20.158;2022-12-17T08:09:40;43.60;;;18.40;;
55800;SDS011;41730;51.960;20.158;2022-12-17T08:12:29;37.60;;;16.70;;
55800;SDS011;41730;51.960;20.158;2022-12-17T08:15:18;47.70;;;20.10;;
55800;SDS011;41730;51.960;20.158;2022-12-17T08:18:06;48.60;;;19.80;;
55800;SDS011;41730;51.960;20.158;2022-12-17T08:20:55;41.70;;;17.00;;
55800;SDS011;41730;51.960;20.158;2022-12-17T08:23:44;45.90;;;20.20;;
55800;SDS011;41730;51.960;20.158;2022-12-17T08:26:33;47.30;;;19.80;;
55800;SDS011;41730;51.960;20.158;2022-12-17T08:29:22;42.00;;;17.90;;
55800;SDS011;41730;51.960;20.158;2022-12-17T08:32:11;45.30;;;20.40;;
55800;SDS011;41730;51.960;20.158;2022-12-17T08:35:00;55.00;;;22.90;;
55800;SDS011;41730;51.960;20.158;2022-12-17T08:37:49;48.10;;;20.40;;
55800;SDS011;41730;51.960;20.158;2022-12-17T08:40:38;39.20;;;16.90;;
55800;SDS011;41730;51.960;20.158;2022-12-17T08:43:27;40.90;;;17.00;;
55800;SDS011;41730;51.960;20.158;2022-12-17T08:46:16;43.20;;;17.20;;
55800;SDS011;41730;51.960;20.158;2022-12-17T08:49:05;40.50;;;15.70;;
55800;SDS011;41730;51.960;20.158;2022-12-17T08:51:54;41.70;;;16.30;;
55800;SDS011;41730;51.960;20.158;2022-12-17T08:54:43;45.40;;;19.60;;
55800;SDS011;41730;51.960;20.158;2022-12-17T08:57:32;37.60;;;14.90;;
55800;SDS011;41730;51.960;20.158;2022-12-17T09:00:21;41.20;;;17.70;;
55800;SDS011;41730;51.960;20.158;2022-12-17T09:03:10;30.70;;;12.70;;
55800;SDS011;41730;51.960;20.158;2022-12-17T09:05:59;40.80;;;17.20;;
55800;SDS011;41730;51.960;20.158;2022-12-17T09:08:48;51.40;;;20.50;;
55800;SDS011;41730;51.960;20.158;2022-12-17T09:11:37;47.20;;;19.30;;
55800;SDS011;41730;51.960;20.158;2022-12-17T09:14:26;49.60;;;18.40;;
55800;SDS011;41730;51.960;20.158;2022-12-17T09:17:16;45.30;;;18.40;;
55800;SDS011;41730;51.960;20.158;2022-12-17T09:20:05;49.60;;;19.70;;
55800;SDS011;41730;51.960;20.158;2022-12-17T09:22:56;46.00;;;17.70;;
55800;SDS011;41730;51.960;20.158;2022-12-17T09:25:52;48.50;;;20.40;;
55800;SDS011;41730;51.960;20.158;2022-12-17T09:28:41;57.30;;;22.50;;
55800;SDS011;41730;51.960;20.158;2022-12-17T09:31:31;50.40;;;19.00;;
55800;SDS011;41730;51.960;20.158;2022-12-17T09:34:21;50.60;;;20.40;;
55800;SDS011;41730;51.960;20.158;2022-12-17T09:37:10;50.10;;;20.00;;
55800;SDS011;41730;51.960;20.158;2022-12-17T09:39:58;47.70;;;19.70;;
55800;SDS011;41730;51.960;20.158;2022-12-17T09:42:49;52.40;;;21.90;;
55800;SDS011;41730;51.960;20.158;2022-12-17T09:45:43;45.30;;;19.60;;
55800;SDS011;41730;51.960;20.158;2022-12-17T09:48:47;50.80;;;21.20;;
55800;SDS011;41730;51.960;20.158;2022-12-17T09:51:46;53.40;;;20.80;;
55800;SDS011;41730;51.960;20.158;2022-12-17T09:54:35;53.80;;;20.10;;
55800;SDS011;41730;51.960;20.158;2022-12-17T09:57:29;57.40;;;23.80;;
55800;SDS011;41730;51.960;20.158;2022-12-17T10:00:22;50.20;;;19.30;;
55800;SDS011;41730;51.960;20.158;2022-12-17T10:03:14;52.90;;;21.40;;
55800;SDS011;41730;51.960;20.158;2022-12-17T10:06:06;54.70;;;21.90;;
55800;SDS011;41730;51.960;20.158;2022-12-17T10:08:58;51.50;;;23.10;;
55800;SDS011;41730;51.960;20.158;2022-12-17T10:11:44;56.80;;;22.70;;
55800;SDS011;41730;51.960;20.158;2022-12-17T10:14:41;44.10;;;17.70;;
55800;SDS011;41730;51.960;20.158;2022-12-17T10:17:36;49.50;;;19.80;;
55800;SDS011;41730;51.960;20.158;2022-12-17T10:20:25;52.00;;;23.00;;
55800;SDS011;41730;51.960;20.158;2022-12-17T10:23:25;59.20;;;24.50;;
55800;SDS011;41730;51.960;20.158;2022-12-17T10:26:18;53.70;;;22.40;;
55800;SDS011;41730;51.960;20.158;2022-12-17T10:29:10;63.00;;;24.10;;
55800;SDS011;41730;51.960;20.158;2022-12-17T10:32:08;59.40;;;24.60;;
55800;SDS011;41730;51.960;20.158;2022-12-17T10:35:07;50.60;;;22.30;;
55800;SDS011;41730;51.960;20.158;2022-12-17T10:40:47;55.70;;;22.10;;
55800;SDS011;41730;51.960;20.158;2022-12-17T10:43:40;55.30;;;21.60;;
55800;SDS011;41730;51.960;20.158;2022-12-17T10:46:31;54.40;;;21.80;;
55800;SDS011;41730;51.960;20.158;2022-12-17T10:49:22;58.80;;;24.50;;
55800;SDS011;41730;51.960;20.158;2022-12-17T10:52:17;61.70;;;25.80;;
55800;SDS011;41730;51.960;20.158;2022-12-17T10:55:19;64.00;;;25.90;;
55800;SDS011;41730;51.960;20.158;2022-12-17T10:58:12;63.30;;;24.70;;
55800;SDS011;41730;51.960;20.158;2022-12-17T11:01:03;61.10;;;24.60;;
55800;SDS011;41730;51.960;20.158;2022-12-17T11:03:56;69.10;;;28.50;;
55800;SDS011;41730;51.960;20.158;2022-12-17T11:06:46;69.60;;;29.20;;
55800;SDS011;41730;51.960;20.158;2022-12-17T11:09:40;73.00;;;30.80;;
55800;SDS011;41730;51.960;20.158;2022-12-17T11:12:36;71.10;;;30.60;;
55800;SDS011;41730;51.960;20.158;2022-12-17T11:15:31;71.80;;;28.30;;
55800;SDS011;41730;51.960;20.158;2022-12-17T11:18:24;74.40;;;29.80;;
55800;SDS011;41730;51.960;20.158;2022-12-17T11:21:18;71.40;;;29.90;;
55800;SDS011;41730;51.960;20.158;2022-12-17T11:24:12;68.00;;;25.70;;
55800;SDS011;41730;51.960;20.158;2022-12-17T11:27:11;61.70;;;25.00;;
55800;SDS011;41730;51.960;20.158;2022-12-17T11:30:09;60.80;;;26.70;;
55800;SDS011;41730;51.960;20.158;2022-12-17T11:33:02;64.10;;;25.70;;
55800;SDS011;41730;51.960;20.158;2022-12-17T11:36:06;67.00;;;28.10;;
55800;SDS011;41730;51.960;20.158;2022-12-17T11:39:07;57.50;;;24.60;;
55800;SDS011;41730;51.960;20.158;2022-12-17T11:42:01;62.20;;;25.40;;
55800;SDS011;41730;51.960;20.158;2022-12-17T11:45:00;68.70;;;27.40;;
55800;SDS011;41730;51.960;20.158;2022-12-17T11:48:03;70.30;;;28.20;;
55800;SDS011;41730;51.960;20.158;2022-12-17T11:50:59;57.50;;;23.60;;
55800;SDS011;41730;51.960;20.158;2022-12-17T11:53:56;58.30;;;24.40;;
55800;SDS011;41730;51.960;20.158;2022-12-17T11:56:55;52.20;;;23.10;;
55800;SDS011;41730;51.960;20.158;2022-12-17T11:59:53;57.10;;;25.10;;
55800;SDS011;41730;51.960;20.158;2022-12-17T12:02:49;53.20;;;23.20;;
55800;SDS011;41730;51.960;20.158;2022-12-17T12:05:46;53.80;;;24.20;;
55800;SDS011;41730;51.960;20.158;2022-12-17T12:08:41;52.10;;;21.30;;
55800;SDS011;41730;51.960;20.158;2022-12-17T12:11:37;55.40;;;23.90;;
55800;SDS011;41730;51.960;20.158;2022-12-17T12:14:34;57.70;;;22.60;;
55800;SDS011;41730;51.960;20.158;2022-12-17T12:17:34;68.10;;;27.80;;
55800;SDS011;41730;51.960;20.158;2022-12-17T12:20:33;58.80;;;26.00;;
55800;SDS011;41730;51.960;20.158;2022-12-17T12:23:41;57.40;;;24.50;;
55800;SDS011;41730;51.960;20.158;2022-12-17T12:26:45;66.60;;;27.00;;
55800;SDS011;41730;51.960;20.158;2022-12-17T12:29:47;65.50;;;27.90;;
55800;SDS011;41730;51.960;20.158;2022-12-17T12:32:54;62.90;;;26.90;;
55800;SDS011;41730;51.960;20.158;2022-12-17T12:35:50;52.30;;;22.50;;
55800;SDS011;41730;51.960;20.158;2022-12-17T12:38:46;70.00;;;30.00;;
55800;SDS011;41730;51.960;20.158;2022-12-17T12:41:39;69.70;;;30.90;;
55800;SDS011;41730;51.960;20.158;2022-12-17T12:44:35;66.60;;;27.90;;
55800;SDS011;41730;51.960;20.158;2022-12-17T12:47:29;61.90;;;27.00;;
55800;SDS011;41730;51.960;20.158;2022-12-17T12:50:26;68.90;;;30.50;;
55800;SDS011;41730;51.960;20.158;2022-12-17T12:53:25;54.50;;;22.40;;
55800;SDS011;41730;51.960;20.158;2022-12-17T12:56:27;74.20;;;30.60;;
55800;SDS011;41730;51.960;20.158;2022-12-17T12:59:25;66.50;;;29.30;;
55800;SDS011;41730;51.960;20.158;2022-12-17T13:02:22;60.40;;;27.00;;
55800;SDS011;41730;51.960;20.158;2022-12-17T13:08:17;64.60;;;28.00;;
55800;SDS011;41730;51.960;20.158;2022-12-17T13:10:51;65.70;;;28.90;;
55800;SDS011;41730;51.960;20.158;2022-12-17T13:13:31;64.80;;;30.50;;
55800;SDS011;41730;51.960;20.158;2022-12-17T13:16:18;62.00;;;29.80;;
55800;SDS011;41730;51.960;20.158;2022-12-17T13:19:01;64.70;;;29.70;;
55800;SDS011;41730;51.960;20.158;2022-12-17T13:21:46;60.10;;;26.70;;
55800;SDS011;41730;51.960;20.158;2022-12-17T13:24:24;65.10;;;29.00;;
55800;SDS011;41730;51.960;20.158;2022-12-17T13:26:57;62.70;;;28.10;;
55800;SDS011;41730;51.960;20.158;2022-12-17T13:29:28;60.40;;;27.40;;
55800;SDS011;41730;51.960;20.158;2022-12-17T13:32:08;64.60;;;29.80;;
55800;SDS011;41730;51.960;20.158;2022-12-17T13:34:56;66.40;;;29.40;;
55800;SDS011;41730;51.960;20.158;2022-12-17T13:37:45;67.50;;;30.20;;
55800;SDS011;41730;51.960;20.158;2022-12-17T13:40:29;65.80;;;32.80;;
55800;SDS011;41730;51.960;20.158;2022-12-17T13:43:14;62.90;;;28.50;;
55800;SDS011;41730;51.960;20.158;2022-12-17T13:45:48;63.10;;;28.20;;
55800;SDS011;41730;51.960;20.158;2022-12-17T13:48:22;65.50;;;29.30;;
55800;SDS011;41730;51.960;20.158;2022-12-17T13:50:56;64.10;;;28.90;;
55800;SDS011;41730;51.960;20.158;2022-12-17T13:53:29;64.40;;;28.50;;
55800;SDS011;41730;51.960;20.158;2022-12-17T13:56:02;61.20;;;28.70;;
55800;SDS011;41730;51.960;20.158;2022-12-17T13:58:33;60.70;;;28.00;;
55800;SDS011;41730;51.960;20.158;2022-12-17T14:01:08;63.40;;;28.20;;
55800;SDS011;41730;51.960;20.158;2022-12-17T14:03:41;62.10;;;28.00;;
55800;SDS011;41730;51.960;20.158;2022-12-17T14:06:35;59.20;;;26.20;;
55800;SDS011;41730;51.960;20.158;2022-12-17T14:09:12;65.40;;;27.60;;
55800;SDS011;41730;51.960;20.158;2022-12-17T14:11:45;63.20;;;27.30;;
55800;SDS011;41730;51.960;20.158;2022-12-17T14:14:35;65.20;;;27.70;;
55800;SDS011;41730;51.960;20.158;2022-12-17T14:17:15;68.10;;;28.20;;
55800;SDS011;41730;51.960;20.158;2022-12-17T14:19:50;57.10;;;24.90;;
55800;SDS011;41730;51.960;20.158;2022-12-17T14:22:28;67.80;;;28.30;;
55800;SDS011;41730;51.960;20.158;2022-12-17T14:25:04;74.30;;;29.20;;
55800;SDS011;41730;51.960;20.158;2022-12-17T14:27:50;69.00;;;30.90;;
55800;SDS011;41730;51.960;20.158;2022-12-17T14:30:29;107.40;;;46.80;;
55800;SDS011;41730;51.960;20.158;2022-12-17T14:33:28;84.00;;;36.20;;
55800;SDS011;41730;51.960;20.158;2022-12-17T14:36:00;112.00;;;48.70;;
55800;SDS011;41730;51.960;20.158;2022-12-17T14:38:35;84.40;;;34.80;;
55800;SDS011;41730;51.960;20.158;2022-12-17T14:41:13;73.00;;;32.40;;
55800;SDS011;41730;51.960;20.158;2022-12-17T14:44:02;77.50;;;30.60;;
55800;SDS011;41730;51.960;20.158;2022-12-17T14:46:35;73.80;;;31.60;;
55800;SDS011;41730;51.960;20.158;2022-12-17T14:49:14;72.50;;;31.00;;
55800;SDS011;41730;51.960;20.158;2022-12-17T14:51:48;70.00;;;30.10;;
55800;SDS011;41730;51.960;20.158;2022-12-17T14:54:26;80.90;;;34.40;;
55800;SDS011;41730;51.960;20.158;2022-12-17T14:56:58;64.40;;;27.80;;
55800;SDS011;41730;51.960;20.158;2022-12-17T14:59:34;66.80;;;30.40;;
55800;SDS011;41730;51.960;20.158;2022-12-17T15:02:12;74.20;;;31.20;;
55800;SDS011;41730;51.960;20.158;2022-12-17T15:04:51;73.40;;;31.00;;
55800;SDS011;41730;51.960;20.158;2022-12-17T15:07:26;61.80;;;28.40;;
55800;SDS011;41730;51.960;20.158;2022-12-17T15:09:59;68.70;;;31.60;;
55800;SDS011;41730;51.960;20.158;2022-12-17T15:12:37;71.20;;;30.10;;
55800;SDS011;41730;51.960;20.158;2022-12-17T15:15:12;70.80;;;30.70;;
55800;SDS011;41730;51.960;20.158;2022-12-17T15:17:44;72.20;;;29.10;;
55800;SDS011;41730;51.960;20.158;2022-12-17T15:20:17;68.50;;;29.10;;
55800;SDS011;41730;51.960;20.158;2022-12-17T15:22:49;71.40;;;30.70;;
55800;SDS011;41730;51.960;20.158;2022-12-17T15:25:21;68.80;;;30.40;;
55800;SDS011;41730;51.960;20.158;2022-12-17T15:27:52;68.60;;;28.50;;
55800;SDS011;41730;51.960;20.158;2022-12-17T15:30:24;64.20;;;27.30;;
55800;SDS011;41730;51.960;20.158;2022-12-17T15:32:56;70.00;;;29.40;;
55800;SDS011;41730;51.960;20.158;2022-12-17T15:35:28;59.40;;;26.70;;
55800;SDS011;41730;51.960;20.158;2022-12-17T15:38:00;70.60;;;30.80;;
55800;SDS011;41730;51.960;20.158;2022-12-17T15:40:32;63.40;;;27.20;;
55800;SDS011;41730;51.960;20.158;2022-12-17T15:43:05;63.90;;;29.10;;
55800;SDS011;41730;51.960;20.158;2022-12-17T15:45:43;64.60;;;26.30;;
55800;SDS011;41730;51.960;20.158;2022-12-17T15:48:16;55.40;;;24.30;;
55800;SDS011;41730;51.960;20.158;2022-12-17T15:50:50;54.70;;;24.10;;
55800;SDS011;41730;51.960;20.158;2022-12-17T15:53:22;62.00;;;27.10;;
55800;SDS011;41730;51.960;20.158;2022-12-17T15:55:59;55.80;;;24.30;;
55800;SDS011;41730;51.960;20.158;2022-12-17T15:58:32;58.70;;;27.10;;
55800;SDS011;41730;51.960;20.158;2022-12-17T16:01:05;58.50;;;25.80;;
55800;SDS011;41730;51.960;20.158;2022-12-17T16:03:39;58.00;;;25.10;;
55800;SDS011;41730;51.960;20.158;2022-12-17T16:06:11;55.30;;;25.10;;
55800;SDS011;41730;51.960;20.158;2022-12-17T16:08:44;52.10;;;23.40;;
55800;SDS011;41730;51.960;20.158;2022-12-17T16:11:16;58.10;;;26.90;;
55800;SDS011;41730;51.960;20.158;2022-12-17T16:13:51;52.30;;;24.40;;
55800;SDS011;41730;51.960;20.158;2022-12-17T16:16:24;50.40;;;23.70;;
55800;SDS011;41730;51.960;20.158;2022-12-17T16:18:59;59.40;;;25.70;;
55800;SDS011;41730;51.960;20.158;2022-12-17T16:21:31;46.40;;;22.60;;